createdAt,value
2023-03-10T00:00:46.424Z,100.00
2023-03-10T00:03:13.205Z,100.00
2023-03-10T00:05:40.026Z,100.00
2023-03-10T00:08:07.387Z,100.00
2023-03-10T00:10:34.256Z,100.00
2023-03-10T00:13:01.069Z,100.00
2023-03-10T00:15:27.756Z,100.00
2023-03-10T00:17:55.726Z,100.00
2023-03-10T00:20:23.402Z,100.00
2023-03-10T00:22:50.310Z,100.00
2023-03-10T00:25:17.182Z,100.00
2023-03-10T00:27:43.782Z,100.00
2023-03-10T00:30:11.012Z,100.00
2023-03-10T00:32:38.048Z,100.00
2023-03-10T00:35:06.158Z,100.00
2023-03-10T00:37:36.545Z,100.00
2023-03-10T00:40:04.834Z,100.00
2023-03-10T00:42:31.826Z,100.00
2023-03-10T00:44:58.383Z,100.00
2023-03-10T00:47:25.117Z,100.00
2023-03-10T00:49:51.820Z,100.00
2023-03-10T00:52:18.605Z,100.00
2023-03-10T00:54:45.865Z,100.00
2023-03-10T00:57:12.538Z,100.00
2023-03-10T00:59:49.909Z,100.00
2023-03-10T01:02:19.442Z,100.00
2023-03-10T01:04:48.354Z,100.00
2023-03-10T01:07:15.031Z,100.00
2023-03-10T01:09:42.449Z,100.00
2023-03-10T01:12:09.344Z,100.00
2023-03-10T01:14:35.912Z,100.00
2023-03-10T01:17:04.157Z,100.00
2023-03-10T01:19:31.326Z,100.00
2023-03-10T01:21:57.964Z,100.00
2023-03-10T01:24:24.665Z,100.00
2023-03-10T01:26:51.253Z,100.00
2023-03-10T01:29:18.167Z,100.00
2023-03-10T01:31:44.938Z,100.00
2023-03-10T01:34:11.752Z,100.00
2023-03-10T01:36:41.533Z,100.00
2023-03-10T01:39:08.781Z,100.00
2023-03-10T01:41:39.187Z,100.00
2023-03-10T01:44:06.102Z,100.00
2023-03-10T01:46:40.284Z,100.00
2023-03-10T01:49:25.948Z,100.00
2023-03-10T01:52:02.495Z,100.00
2023-03-10T01:54:36.970Z,100.00
2023-03-10T01:57:06.259Z,100.00
2023-03-10T01:59:34.107Z,100.00
2023-03-10T02:02:03.068Z,100.00
2023-03-10T02:04:50.372Z,100.00
2023-03-10T02:07:24.717Z,100.00
2023-03-10T02:09:52.674Z,100.00
2023-03-10T02:12:20.587Z,100.00
2023-03-10T02:14:49.078Z,100.00
2023-03-10T02:17:18.262Z,100.00
2023-03-10T02:19:53.153Z,100.00
2023-03-10T02:22:20.627Z,100.00
2023-03-10T02:24:58.050Z,100.00
2023-03-10T02:27:29.870Z,100.00
2023-03-10T02:30:05.401Z,100.00
2023-03-10T02:32:39.440Z,100.00
2023-03-10T02:35:06.905Z,100.00
2023-03-10T02:37:39.088Z,100.00
2023-03-10T02:40:50.838Z,100.00
2023-03-10T02:43:34.886Z,100.00
2023-03-10T02:46:24.171Z,100.00
2023-03-10T02:48:51.071Z,100.00
2023-03-10T02:51:29.671Z,100.00
2023-03-10T02:54:00.459Z,100.00
2023-03-10T02:56:28.441Z,100.00
2023-03-10T02:58:57.338Z,100.00
2023-03-10T03:01:26.127Z,100.00
2023-03-10T03:03:54.695Z,100.00
2023-03-10T03:06:21.976Z,100.00
2023-03-10T03:08:48.811Z,100.00
2023-03-10T03:11:17.576Z,100.00
2023-03-10T03:13:44.524Z,100.00
2023-03-10T03:16:11.315Z,100.00
2023-03-10T03:18:39.473Z,100.00
2023-03-10T03:21:11.741Z,100.00
2023-03-10T03:23:39.527Z,100.00
2023-03-10T03:26:18.532Z,100.00
2023-03-10T03:28:45.851Z,100.00
2023-03-10T03:31:23.758Z,100.00
2023-03-10T03:33:55.328Z,100.00
2023-03-10T03:36:22.592Z,100.00
2023-03-10T03:38:50.267Z,100.00
2023-03-10T03:41:17.574Z,100.00
2023-03-10T03:43:44.441Z,100.00
2023-03-10T03:46:11.643Z,97.59
2023-03-10T03:48:39.115Z,95.13
2023-03-10T03:51:08.046Z,93.41
2023-03-10T03:53:39.789Z,93.41
2023-03-10T03:56:07.603Z,100.00
2023-03-10T03:58:36.562Z,100.00
2023-03-10T04:01:03.636Z,100.00
2023-03-10T04:03:35.960Z,100.00
2023-03-10T04:06:02.921Z,100.00
2023-03-10T04:08:29.986Z,100.00
2023-03-10T04:10:56.865Z,100.00
2023-03-10T04:13:26.417Z,100.00
2023-03-10T04:15:57.626Z,100.00
2023-03-10T04:18:26.522Z,99.36
2023-03-10T04:20:53.916Z,97.01
2023-03-10T04:23:20.743Z,94.84
2023-03-10T04:25:49.400Z,94.77
2023-03-10T04:28:17.125Z,94.18
2023-03-10T04:30:46.487Z,94.69
2023-03-10T04:33:13.720Z,97.11
2023-03-10T04:35:44.829Z,97.29
2023-03-10T04:38:13.871Z,96.56
2023-03-10T04:40:40.858Z,96.62
2023-03-10T04:43:07.958Z,97.35
2023-03-10T04:45:34.834Z,96.12
2023-03-10T04:48:01.639Z,95.92
2023-03-10T04:50:28.963Z,96.39
2023-03-10T04:52:56.529Z,97.51
2023-03-10T04:55:27.802Z,98.37
2023-03-10T04:57:55.432Z,97.44
2023-03-10T05:00:22.145Z,99.24
2023-03-10T05:02:50.613Z,100.00
2023-03-10T05:05:17.951Z,100.00
2023-03-10T05:07:46.291Z,100.00
2023-03-10T05:10:13.188Z,100.00
2023-03-10T05:12:42.135Z,100.00
2023-03-10T05:15:11.707Z,100.00
2023-03-10T05:17:38.714Z,100.00
2023-03-10T05:20:07.928Z,100.00
2023-03-10T05:22:37.624Z,100.00
2023-03-10T05:25:08.320Z,100.00
2023-03-10T05:27:37.136Z,100.00
2023-03-10T05:30:06.731Z,100.00
2023-03-10T05:32:35.484Z,100.00
2023-03-10T05:35:04.629Z,100.00
2023-03-10T05:37:39.286Z,100.00
2023-03-10T05:40:15.169Z,100.00
2023-03-10T05:42:41.952Z,100.00
2023-03-10T05:45:10.539Z,100.00
2023-03-10T05:47:37.761Z,100.00
2023-03-10T05:50:06.386Z,100.00
2023-03-10T05:52:37.273Z,100.00
2023-03-10T05:55:04.531Z,100.00
2023-03-10T05:57:31.296Z,100.00
2023-03-10T05:59:58.318Z,100.00
2023-03-10T06:02:25.238Z,100.00
2023-03-10T06:04:51.802Z,100.00
2023-03-10T06:07:18.653Z,100.00
2023-03-10T06:09:45.852Z,100.00
2023-03-10T06:12:12.502Z,100.00
2023-03-10T06:14:39.270Z,100.00
2023-03-10T06:17:06.110Z,100.00
2023-03-10T06:19:32.797Z,100.00
2023-03-10T06:21:59.862Z,100.00
2023-03-10T06:24:28.772Z,100.00
2023-03-10T06:26:55.447Z,100.00
2023-03-10T06:29:22.112Z,100.00
2023-03-10T06:31:48.819Z,100.00
2023-03-10T06:34:15.472Z,100.00
2023-03-10T06:36:42.427Z,100.00
2023-03-10T06:39:09.450Z,100.00
2023-03-10T06:41:37.096Z,100.00
2023-03-10T06:44:04.121Z,100.00
2023-03-10T06:46:30.856Z,100.00
2023-03-10T06:48:57.499Z,100.00
2023-03-10T06:51:24.228Z,100.00
2023-03-10T06:53:51.210Z,100.00
2023-03-10T06:56:22.382Z,100.00
2023-03-10T06:58:49.172Z,100.00
2023-03-10T07:01:31.390Z,100.00
2023-03-10T07:03:59.039Z,100.00
2023-03-10T07:06:26.065Z,100.00
2023-03-10T07:08:54.548Z,100.00
2023-03-10T07:11:22.439Z,100.00
2023-03-10T07:13:49.120Z,100.00
2023-03-10T07:16:16.307Z,100.00
2023-03-10T07:18:43.195Z,100.00
2023-03-10T07:21:12.474Z,100.00
2023-03-10T07:23:40.469Z,100.00
2023-03-10T07:26:09.030Z,100.00
2023-03-10T07:28:38.008Z,100.00
2023-03-10T07:31:07.170Z,100.00
2023-03-10T07:33:34.095Z,100.00
2023-03-10T07:36:05.962Z,100.00
2023-03-10T07:38:32.788Z,100.00
2023-03-10T07:41:01.854Z,100.00
2023-03-10T07:43:28.598Z,100.00
2023-03-10T07:45:55.710Z,100.00
2023-03-10T07:48:22.328Z,100.00
2023-03-10T07:50:56.890Z,100.00
2023-03-10T07:53:23.720Z,100.00
2023-03-10T07:55:50.262Z,100.00
2023-03-10T07:58:16.941Z,100.00
2023-03-10T08:00:43.549Z,100.00
2023-03-10T08:03:10.150Z,100.00
2023-03-10T08:05:43.557Z,100.00
2023-03-10T08:08:10.916Z,100.00
2023-03-10T08:10:37.482Z,100.00
2023-03-10T08:13:04.261Z,99.06
2023-03-10T08:15:30.832Z,97.47
2023-03-10T08:17:58.031Z,96.79
2023-03-10T08:20:24.811Z,95.51
2023-03-10T08:22:53.338Z,95.08
2023-03-10T08:25:20.074Z,94.63
2023-03-10T08:27:46.964Z,94.56
2023-03-10T08:30:13.739Z,93.45
2023-03-10T08:32:40.317Z,90.84
2023-03-10T08:35:07.828Z,87.74
2023-03-10T08:37:34.493Z,85.76
2023-03-10T08:40:01.078Z,84.04
2023-03-10T08:42:27.848Z,82.78
2023-03-10T08:44:55.913Z,83.68
2023-03-10T08:47:23.457Z,82.95
2023-03-10T08:49:50.364Z,84.61
2023-03-10T08:52:17.062Z,82.42
2023-03-10T08:54:44.012Z,80.70
2023-03-10T08:57:10.718Z,78.03
2023-03-10T08:59:37.479Z,75.26
2023-03-10T09:02:04.211Z,70.88
2023-03-10T09:04:30.887Z,67.59
2023-03-10T09:06:57.476Z,65.65
2023-03-10T09:09:24.120Z,62.56
2023-03-10T09:11:50.792Z,63.98
2023-03-10T09:14:17.910Z,62.94
2023-03-10T09:16:44.856Z,64.95
2023-03-10T09:19:12.081Z,65.35
2023-03-10T09:21:39.506Z,64.68
2023-03-10T09:24:06.504Z,66.30
2023-03-10T09:26:34.573Z,64.68
2023-03-10T09:29:02.350Z,66.02
2023-03-10T09:31:32.529Z,70.56
2023-03-10T09:33:59.543Z,70.10
2023-03-10T09:36:26.224Z,68.00
2023-03-10T09:38:53.277Z,66.02
2023-03-10T09:41:38.668Z,64.82
2023-03-10T09:44:17.341Z,66.69
2023-03-10T09:46:52.840Z,67.57
2023-03-10T09:49:46.077Z,75.48
2023-03-10T09:52:38.489Z,80.24
2023-03-10T09:55:14.294Z,82.15
2023-03-10T09:57:41.522Z,82.53
2023-03-10T10:00:11.663Z,87.74
2023-03-10T10:02:47.160Z,88.11
2023-03-10T10:05:23.815Z,91.10
2023-03-10T10:07:55.353Z,94.95
2023-03-10T10:10:28.843Z,97.36
2023-03-10T10:13:00.636Z,96.21
2023-03-10T10:15:29.060Z,94.73
2023-03-10T10:18:08.665Z,98.93
2023-03-10T10:20:50.148Z,100.00
2023-03-10T10:23:41.913Z,100.00
2023-03-10T10:26:20.616Z,100.00
2023-03-10T10:28:53.338Z,100.00
2023-03-10T10:31:22.806Z,100.00
2023-03-10T10:34:07.338Z,100.00
2023-03-10T10:36:37.616Z,100.00
2023-03-10T10:39:20.085Z,100.00
2023-03-10T10:41:46.679Z,100.00
2023-03-10T10:44:17.375Z,100.00
2023-03-10T10:46:53.145Z,100.00
2023-03-10T10:49:31.171Z,100.00
2023-03-10T10:52:04.293Z,100.00
2023-03-10T10:54:54.246Z,100.00
2023-03-10T10:57:23.239Z,100.00
2023-03-10T10:59:49.883Z,100.00
2023-03-10T11:02:34.296Z,99.67
2023-03-10T11:05:17.176Z,97.94
2023-03-10T11:07:44.572Z,97.92
2023-03-10T11:10:20.611Z,93.49
2023-03-10T11:13:05.681Z,82.06
2023-03-10T11:15:50.131Z,75.88
2023-03-10T11:18:24.049Z,65.17
2023-03-10T11:21:11.679Z,59.34
2023-03-10T11:24:15.913Z,59.30
2023-03-10T11:26:47.813Z,56.49
2023-03-10T11:29:56.099Z,52.98
2023-03-10T11:32:28.929Z,50.50
2023-03-10T11:34:55.962Z,49.30
2023-03-10T11:37:30.562Z,47.71
2023-03-10T11:40:27.205Z,46.49
2023-03-10T11:42:59.556Z,48.17
2023-03-10T11:45:39.084Z,47.39
2023-03-10T11:48:33.514Z,49.59
2023-03-10T11:51:03.692Z,50.21
2023-03-10T11:53:45.231Z,52.94
2023-03-10T11:56:15.427Z,54.91
2023-03-10T11:58:48.393Z,57.16
2023-03-10T12:01:21.514Z,58.11
2023-03-10T12:03:57.434Z,57.21
2023-03-10T12:06:35.088Z,57.71
2023-03-10T12:09:03.108Z,57.25
2023-03-10T12:11:30.956Z,55.90
2023-03-10T12:14:04.023Z,55.09
2023-03-10T12:16:39.256Z,57.34
2023-03-10T12:19:06.409Z,57.42
2023-03-10T12:21:33.680Z,58.78
2023-03-10T12:24:03.643Z,59.27
2023-03-10T12:26:58.048Z,57.58
2023-03-10T12:29:37.353Z,59.30
2023-03-10T12:32:05.477Z,61.05
2023-03-10T12:34:32.634Z,60.55
2023-03-10T12:37:11.820Z,59.88
2023-03-10T12:39:42.684Z,61.59
2023-03-10T12:42:32.701Z,61.45
2023-03-10T12:45:09.660Z,61.70
2023-03-10T12:48:03.153Z,63.72
2023-03-10T12:50:36.208Z,62.45
2023-03-10T12:53:02.717Z,60.82
2023-03-10T12:55:29.457Z,59.87
2023-03-10T12:58:20.992Z,59.31
2023-03-10T13:00:55.618Z,62.68
2023-03-10T13:03:53.177Z,62.87
2023-03-10T13:06:30.796Z,63.73
2023-03-10T13:09:19.600Z,61.44
2023-03-10T13:11:56.672Z,60.30
2023-03-10T13:14:32.710Z,62.47
2023-03-10T13:17:00.885Z,65.61
2023-03-10T13:19:30.376Z,67.77
2023-03-10T13:21:57.383Z,66.52
2023-03-10T13:24:29.145Z,69.92
2023-03-10T13:27:02.872Z,73.49
2023-03-10T13:29:29.615Z,75.68
2023-03-10T13:31:56.621Z,75.44
2023-03-10T13:34:27.905Z,70.90
2023-03-10T13:37:02.964Z,71.92
2023-03-10T13:39:30.061Z,72.61
2023-03-10T13:42:01.930Z,73.43
2023-03-10T13:44:33.826Z,75.29
2023-03-10T13:47:03.266Z,75.72
2023-03-10T13:49:35.352Z,76.52
2023-03-10T13:52:12.117Z,76.03
2023-03-10T13:54:40.648Z,75.92
2023-03-10T13:57:19.028Z,72.80
2023-03-10T13:59:47.644Z,73.39
2023-03-10T14:02:28.738Z,72.47
2023-03-10T14:04:56.086Z,73.96
2023-03-10T14:07:27.389Z,75.25
2023-03-10T14:10:03.404Z,71.26
2023-03-10T14:12:45.203Z,73.23
2023-03-10T14:15:27.975Z,73.11
2023-03-10T14:18:06.745Z,75.94
2023-03-10T14:20:38.929Z,76.25
2023-03-10T14:23:25.909Z,73.82
2023-03-10T14:25:54.867Z,79.20
2023-03-10T14:28:31.444Z,75.12
2023-03-10T14:31:02.784Z,76.22
2023-03-10T14:33:29.653Z,78.50
2023-03-10T14:35:56.526Z,79.61
2023-03-10T14:38:23.359Z,79.92
2023-03-10T14:40:52.510Z,84.54
2023-03-10T14:43:22.854Z,86.07
2023-03-10T14:45:51.421Z,89.20
2023-03-10T14:48:21.171Z,93.95
2023-03-10T14:50:48.512Z,98.20
2023-03-10T14:53:18.405Z,100.00
2023-03-10T14:55:49.740Z,100.00
2023-03-10T14:58:27.619Z,100.00
2023-03-10T15:00:54.663Z,100.00
2023-03-10T15:03:21.536Z,100.00
2023-03-10T15:05:49.374Z,100.00
2023-03-10T15:08:17.721Z,100.00
2023-03-10T15:10:48.346Z,100.00
2023-03-10T15:13:18.168Z,100.00
2023-03-10T15:15:47.022Z,100.00
2023-03-10T15:18:16.845Z,100.00
2023-03-10T15:20:44.072Z,100.00
2023-03-10T15:23:13.213Z,100.00
2023-03-10T15:25:43.694Z,100.00
2023-03-10T15:28:11.971Z,100.00
2023-03-10T15:30:38.793Z,100.00
2023-03-10T15:33:05.675Z,100.00
2023-03-10T15:35:33.487Z,100.00
2023-03-10T15:38:00.338Z,100.00
2023-03-10T15:40:29.421Z,100.00
2023-03-10T15:42:57.834Z,100.00
2023-03-10T15:45:29.444Z,100.00
2023-03-10T15:47:56.437Z,100.00
2023-03-10T15:50:24.110Z,100.00
2023-03-10T15:52:56.636Z,100.00
2023-03-10T15:55:24.592Z,100.00
2023-03-10T15:57:51.912Z,100.00
2023-03-10T16:00:20.525Z,100.00
2023-03-10T16:02:48.349Z,100.00
2023-03-10T16:05:15.205Z,100.00
2023-03-10T16:07:41.969Z,100.00
2023-03-10T16:10:13.495Z,100.00
2023-03-10T16:12:40.170Z,100.00
2023-03-10T16:15:07.654Z,100.00
2023-03-10T16:17:34.433Z,100.00
2023-03-10T16:20:06.430Z,100.00
2023-03-10T16:22:33.024Z,100.00
2023-03-10T16:24:59.645Z,100.00
2023-03-10T16:27:26.195Z,100.00
2023-03-10T16:29:52.844Z,100.00
2023-03-10T16:32:19.853Z,100.00
2023-03-10T16:34:49.362Z,100.00
2023-03-10T16:37:16.296Z,100.00
2023-03-10T16:39:43.618Z,100.00
2023-03-10T16:42:10.221Z,100.00
2023-03-10T16:44:36.765Z,100.00
2023-03-10T16:47:03.624Z,100.00
2023-03-10T16:49:32.013Z,100.00
2023-03-10T16:51:59.800Z,100.00
2023-03-10T16:54:26.564Z,100.00
2023-03-10T16:56:54.485Z,100.00
2023-03-10T16:59:25.055Z,100.00
2023-03-10T17:01:51.872Z,100.00
2023-03-10T17:04:19.672Z,100.00
2023-03-10T17:06:47.484Z,100.00
2023-03-10T17:09:15.543Z,100.00
2023-03-10T17:11:55.445Z,100.00
2023-03-10T17:14:23.123Z,100.00
2023-03-10T17:16:50.979Z,100.00
2023-03-10T17:19:20.724Z,100.00
2023-03-10T17:21:49.829Z,100.00
2023-03-10T17:24:18.514Z,100.00
2023-03-10T17:26:46.233Z,100.00
2023-03-10T17:29:13.647Z,100.00
2023-03-10T17:31:40.548Z,100.00
2023-03-10T17:34:10.833Z,100.00
2023-03-10T17:36:37.743Z,100.00
2023-03-10T17:39:06.095Z,100.00
2023-03-10T17:41:35.773Z,100.00
2023-03-10T17:44:04.962Z,100.00
2023-03-10T17:46:31.900Z,100.00
2023-03-10T17:49:00.226Z,100.00
2023-03-10T17:51:29.252Z,100.00
2023-03-10T17:54:01.269Z,100.00
2023-03-10T17:56:28.083Z,100.00
2023-03-10T17:58:56.429Z,100.00
2023-03-10T18:01:27.082Z,100.00
2023-03-10T18:03:58.099Z,100.00
2023-03-10T18:06:27.913Z,100.00
2023-03-10T18:08:56.460Z,100.00
2023-03-10T18:11:24.425Z,100.00
2023-03-10T18:13:52.273Z,100.00
2023-03-10T18:16:31.127Z,100.00
2023-03-10T18:18:59.037Z,100.00
2023-03-10T18:21:27.977Z,100.00
2023-03-10T18:23:54.689Z,100.00
2023-03-10T18:26:27.694Z,100.00
2023-03-10T18:28:54.446Z,100.00
2023-03-10T18:31:24.455Z,96.80
2023-03-10T18:33:51.550Z,96.09
2023-03-10T18:36:20.074Z,97.85
2023-03-10T18:38:48.011Z,100.00
2023-03-10T18:41:18.635Z,100.00
2023-03-10T18:43:45.257Z,100.00
2023-03-10T18:46:12.505Z,100.00
2023-03-10T18:48:39.207Z,100.00
2023-03-10T18:51:06.073Z,100.00
2023-03-10T18:53:33.010Z,100.00
2023-03-10T18:56:00.082Z,100.00
2023-03-10T18:58:26.814Z,100.00
2023-03-10T19:00:53.411Z,100.00
2023-03-10T19:03:20.159Z,100.00
2023-03-10T19:05:51.602Z,100.00
2023-03-10T19:08:18.999Z,100.00
2023-03-10T19:10:45.664Z,100.00
2023-03-10T19:13:12.465Z,100.00
2023-03-10T19:15:39.243Z,100.00
2023-03-10T19:18:06.084Z,100.00
2023-03-10T19:20:32.750Z,100.00
2023-03-10T19:22:59.658Z,100.00
2023-03-10T19:25:26.225Z,100.00
2023-03-10T19:27:52.949Z,100.00
2023-03-10T19:30:20.451Z,100.00
2023-03-10T19:32:47.911Z,100.00
2023-03-10T19:35:16.208Z,100.00
2023-03-10T19:37:43.695Z,100.00
2023-03-10T19:40:17.017Z,100.00
2023-03-10T19:42:44.284Z,100.00
2023-03-10T19:45:13.883Z,100.00
2023-03-10T19:47:41.607Z,100.00
2023-03-10T19:50:11.254Z,100.00
2023-03-10T19:52:42.258Z,100.00
2023-03-10T19:55:12.666Z,100.00
2023-03-10T19:57:41.011Z,100.00
2023-03-10T20:00:13.603Z,100.00
2023-03-10T20:02:44.591Z,100.00
2023-03-10T20:05:14.211Z,100.00
2023-03-10T20:07:42.291Z,100.00
2023-03-10T20:10:09.694Z,100.00
2023-03-10T20:12:36.749Z,100.00
2023-03-10T20:15:04.082Z,100.00
2023-03-10T20:17:30.964Z,100.00
2023-03-10T20:19:57.702Z,100.00
2023-03-10T20:22:24.479Z,100.00
2023-03-10T20:24:51.233Z,100.00
2023-03-10T20:27:18.072Z,100.00
2023-03-10T20:29:44.765Z,100.00
2023-03-10T20:32:11.452Z,100.00
2023-03-10T20:34:41.296Z,100.00
2023-03-10T20:37:08.496Z,100.00
2023-03-10T20:39:35.400Z,98.12
2023-03-10T20:42:01.980Z,98.40
2023-03-10T20:44:28.709Z,96.17
2023-03-10T20:46:55.603Z,97.32
2023-03-10T20:49:22.188Z,96.87
2023-03-10T20:51:48.855Z,95.49
2023-03-10T20:54:15.531Z,93.52
2023-03-10T20:56:42.100Z,94.87
2023-03-10T20:59:08.824Z,95.88
2023-03-10T21:01:39.792Z,99.70
2023-03-10T21:04:06.785Z,97.86
2023-03-10T21:06:33.739Z,96.47
2023-03-10T21:09:05.757Z,97.09
2023-03-10T21:11:33.897Z,94.45
2023-03-10T21:14:00.905Z,94.08
2023-03-10T21:16:28.383Z,96.53
2023-03-10T21:18:55.069Z,97.46
2023-03-10T21:21:22.163Z,100.00
2023-03-10T21:23:49.309Z,100.00
2023-03-10T21:26:19.470Z,100.00
2023-03-10T21:28:47.087Z,100.00
2023-03-10T21:31:14.175Z,100.00
2023-03-10T21:33:44.200Z,100.00
2023-03-10T21:36:15.582Z,100.00
2023-03-10T21:38:43.079Z,100.00
2023-03-10T21:41:13.133Z,100.00
2023-03-10T21:43:39.804Z,100.00
2023-03-10T21:46:06.498Z,100.00
2023-03-10T21:48:33.263Z,100.00
2023-03-10T21:50:59.789Z,100.00
2023-03-10T21:53:27.025Z,100.00
2023-03-10T21:55:54.270Z,100.00
2023-03-10T21:58:23.421Z,100.00
2023-03-10T22:00:50.498Z,100.00
2023-03-10T22:03:17.870Z,100.00
2023-03-10T22:05:44.775Z,100.00
2023-03-10T22:08:11.544Z,100.00
2023-03-10T22:10:38.223Z,100.00
2023-03-10T22:13:04.911Z,100.00
2023-03-10T22:15:31.579Z,100.00
2023-03-10T22:17:58.315Z,100.00
2023-03-10T22:20:27.553Z,100.00
2023-03-10T22:22:54.342Z,100.00
2023-03-10T22:25:21.990Z,100.00
2023-03-10T22:27:57.907Z,100.00
2023-03-10T22:30:26.049Z,100.00
2023-03-10T22:32:53.453Z,100.00
2023-03-10T22:35:21.515Z,100.00
2023-03-10T22:37:48.518Z,100.00
2023-03-10T22:40:18.766Z,100.00
2023-03-10T22:42:46.267Z,100.00
2023-03-10T22:45:25.266Z,100.00
2023-03-10T22:47:54.361Z,100.00
2023-03-10T22:50:26.793Z,100.00
2023-03-10T22:52:53.590Z,100.00
2023-03-10T22:55:24.812Z,100.00
2023-03-10T22:57:52.598Z,100.00
2023-03-10T23:00:22.907Z,100.00
2023-03-10T23:02:52.288Z,100.00
2023-03-10T23:05:19.755Z,100.00
2023-03-10T23:07:47.230Z,100.00
2023-03-10T23:10:18.653Z,100.00
2023-03-10T23:12:45.782Z,100.00
2023-03-10T23:15:24.711Z,100.00
2023-03-10T23:17:53.609Z,100.00
2023-03-10T23:20:20.789Z,100.00
2023-03-10T23:22:47.380Z,100.00
2023-03-10T23:25:18.486Z,100.00
2023-03-10T23:27:45.793Z,100.00
2023-03-10T23:30:15.056Z,100.00
2023-03-10T23:32:45.965Z,100.00
2023-03-10T23:35:29.433Z,100.00
2023-03-10T23:37:56.803Z,100.00
2023-03-10T23:40:26.942Z,100.00
2023-03-10T23:42:55.788Z,100.00
2023-03-10T23:45:24.430Z,100.00
2023-03-10T23:47:52.421Z,100.00
2023-03-10T23:50:26.686Z,100.00
2023-03-10T23:52:53.712Z,100.00
2023-03-10T23:55:23.341Z,100.00
2023-03-10T23:57:50.216Z,100.00
